createdAt,value
2018-12-02T07:47:46.241Z,19.87
2018-12-02T07:50:14.480Z,19.03
2018-12-02T07:52:42.738Z,18.77
2018-12-02T07:55:10.975Z,18.87
2018-12-02T07:57:39.239Z,17.77
2018-12-02T08:00:11.432Z,17.23
2018-12-02T08:02:39.703Z,17.97
2018-12-02T08:05:09.427Z,17.40
2018-12-02T08:07:37.716Z,17.00
2018-12-02T08:10:11.707Z,17.40
2018-12-02T08:12:40.010Z,17.30
2018-12-02T08:15:10.713Z,17.23
2018-12-02T08:17:39.022Z,16.47
2018-12-02T08:20:10.976Z,17.77
2018-12-02T08:22:39.324Z,17.53
2018-12-02T08:25:09.371Z,15.93
2018-12-02T08:27:37.603Z,15.93
2018-12-02T08:30:10.127Z,16.43
2018-12-02T08:32:38.362Z,16.13
2018-12-02T08:35:07.752Z,15.90
2018-12-02T08:37:35.996Z,16.00
2018-12-02T08:40:05.318Z,15.87
2018-12-02T08:42:33.538Z,16.63
2018-12-02T08:45:01.778Z,16.40
2018-12-02T08:47:30.007Z,15.40
2018-12-02T08:49:58.250Z,15.37
2018-12-02T08:52:26.470Z,14.83
2018-12-02T08:54:54.710Z,15.03
2018-12-02T08:57:22.922Z,14.37
2018-12-02T08:59:51.163Z,15.27
2018-12-02T09:02:19.382Z,14.60
2018-12-02T09:04:47.634Z,14.87
2018-12-02T09:07:15.866Z,14.00
2018-12-02T09:09:44.098Z,14.10
2018-12-02T09:12:12.350Z,13.30
2018-12-02T09:14:40.614Z,12.93
2018-12-02T09:17:08.842Z,14.43
2018-12-02T09:19:37.066Z,14.07
2018-12-02T09:22:05.698Z,12.73
2018-12-02T09:24:33.930Z,13.13
2018-12-02T09:27:02.184Z,13.43
2018-12-02T09:29:30.410Z,12.20
2018-12-02T09:31:58.671Z,12.10
2018-12-02T09:34:26.895Z,13.40
2018-12-02T09:36:58.008Z,12.67
2018-12-02T09:39:23.421Z,13.10
2018-12-02T09:41:51.670Z,11.90
2018-12-02T09:44:19.895Z,11.97
2018-12-02T09:46:48.142Z,13.83
2018-12-02T09:49:16.374Z,13.47
2018-12-02T09:51:44.614Z,11.73
2018-12-02T09:54:12.846Z,10.57
2018-12-02T09:56:41.078Z,11.70
2018-12-02T09:59:09.309Z,11.70
2018-12-02T10:01:37.566Z,12.07
2018-12-02T10:04:05.794Z,11.57
2018-12-02T10:06:34.040Z,12.20
2018-12-02T10:09:02.267Z,11.60
2018-12-02T10:11:30.531Z,11.07
2018-12-02T10:13:58.782Z,11.43
2018-12-02T10:16:27.059Z,11.20
2018-12-02T10:18:55.292Z,11.63
2018-12-02T10:21:23.530Z,10.53
2018-12-02T10:23:51.779Z,10.37
2018-12-02T10:26:20.007Z,10.70
2018-12-02T10:28:48.270Z,10.80
2018-12-02T10:31:16.531Z,11.63
2018-12-02T10:33:44.776Z,11.33
2018-12-02T10:36:13.043Z,10.37
2018-12-02T10:38:41.290Z,10.67
2018-12-02T10:41:09.530Z,10.30
2018-12-02T10:43:37.778Z,10.80
2018-12-02T10:46:05.997Z,10.50
2018-12-02T10:48:34.250Z,10.23
2018-12-02T10:51:02.492Z,9.87
2018-12-02T10:53:30.737Z,10.10
2018-12-02T10:55:59.882Z,10.03
2018-12-02T10:58:32.269Z,10.00
2018-12-02T11:01:06.826Z,10.67
2018-12-02T11:03:35.083Z,10.17
2018-12-02T11:06:03.383Z,9.70
2018-12-02T11:08:31.618Z,9.87
2018-12-02T11:10:59.842Z,9.47
2018-12-02T11:13:28.086Z,9.07
2018-12-02T11:15:56.317Z,10.43
2018-12-02T11:18:24.558Z,9.93
2018-12-02T11:20:52.778Z,9.43
2018-12-02T11:23:21.010Z,9.50
2018-12-02T11:25:49.223Z,9.40
2018-12-02T11:28:17.462Z,9.60
2018-12-02T11:30:45.698Z,9.00
2018-12-02T11:33:13.936Z,8.37
2018-12-02T11:35:42.150Z,9.50
2018-12-02T11:38:10.378Z,9.47
2018-12-02T11:40:39.518Z,9.50
2018-12-02T11:43:08.450Z,9.53
2018-12-02T11:45:36.815Z,9.23
2018-12-02T11:48:05.662Z,7.97
2018-12-02T11:50:33.922Z,8.90
2018-12-02T11:53:02.167Z,7.80
2018-12-02T11:55:30.412Z,7.83
2018-12-02T11:57:58.630Z,7.93
2018-12-02T12:00:28.919Z,7.63
2018-12-02T12:02:57.877Z,7.30
2018-12-02T12:05:26.153Z,7.37
2018-12-02T12:07:54.414Z,8.10
2018-12-02T12:10:23.669Z,7.60
2018-12-02T12:12:52.722Z,7.70
2018-12-02T12:15:22.963Z,6.67
2018-12-02T12:17:51.210Z,7.50
2018-12-02T12:20:36.922Z,9.00
2018-12-02T12:23:05.490Z,7.27
2018-12-02T12:25:33.731Z,7.30
2018-12-02T12:28:01.943Z,7.63
2018-12-02T12:30:31.367Z,7.80
2018-12-02T12:32:59.810Z,8.10
2018-12-02T12:35:28.058Z,8.07
2018-12-02T12:37:56.274Z,8.20
2018-12-02T12:40:26.926Z,8.30
2018-12-02T12:42:58.065Z,8.13
2018-12-02T12:45:26.310Z,6.97
2018-12-02T12:47:54.542Z,8.50
2018-12-02T12:50:22.798Z,8.47
2018-12-02T12:52:51.037Z,8.90
2018-12-02T12:55:19.266Z,8.53
2018-12-02T12:57:47.519Z,8.67
2018-12-02T13:00:17.724Z,7.67
2018-12-02T13:02:46.183Z,8.70
2018-12-02T13:05:24.337Z,8.40
2018-12-02T13:07:52.914Z,8.20
2018-12-02T13:10:21.139Z,7.77
2018-12-02T13:12:49.383Z,12.30
2018-12-02T13:15:19.772Z,9.93
2018-12-02T13:17:51.962Z,12.87
2018-12-02T13:20:20.214Z,9.60
2018-12-02T13:22:48.455Z,8.83
2018-12-02T13:25:16.798Z,9.13
2018-12-02T13:27:45.880Z,9.30
2018-12-02T13:30:15.903Z,8.67
2018-12-02T13:32:45.303Z,9.67
2018-12-02T13:35:13.606Z,10.97
2018-12-02T13:37:41.858Z,10.57
2018-12-02T13:40:17.829Z,10.40
2018-12-02T13:42:51.295Z,10.50
2018-12-02T13:45:21.011Z,11.20
2018-12-02T13:47:49.246Z,11.43
2018-12-02T13:50:18.276Z,12.57
2018-12-02T13:52:47.591Z,13.10
2018-12-02T13:55:19.122Z,17.77
2018-12-02T13:57:47.682Z,16.27
2018-12-02T14:00:19.820Z,16.63
2018-12-02T14:02:51.242Z,15.97
2018-12-02T14:05:19.469Z,15.90
2018-12-02T14:07:47.707Z,15.83
2018-12-02T14:10:16.070Z,24.10
2018-12-02T14:12:46.802Z,44.50
2018-12-02T14:16:26.644Z,19.23
2018-12-02T14:18:56.070Z,17.80
2018-12-02T14:21:24.317Z,16.40
2018-12-02T14:23:52.559Z,17.80
2018-12-02T14:26:22.007Z,21.20
2018-12-02T14:29:00.033Z,18.43
2018-12-02T14:31:29.935Z,18.73
2018-12-02T14:33:58.191Z,19.67
2018-12-02T14:36:26.426Z,19.23
2018-12-02T14:38:54.781Z,19.20
2018-12-02T14:41:23.040Z,20.50
2018-12-02T14:43:51.317Z,21.00
2018-12-02T14:46:19.551Z,18.77
2018-12-02T14:48:47.793Z,20.17
2018-12-02T14:51:16.042Z,20.83
2018-12-02T14:53:44.274Z,19.67
2018-12-02T14:56:12.522Z,20.70
2018-12-02T14:58:40.765Z,22.60
2018-12-02T15:01:09.009Z,21.03
2018-12-02T15:03:37.227Z,21.87
2018-12-02T15:06:05.598Z,21.00
2018-12-02T15:08:33.819Z,21.97
2018-12-02T15:11:02.074Z,21.13
2018-12-02T15:13:30.311Z,23.17
2018-12-02T15:15:58.570Z,22.20
2018-12-02T15:18:26.793Z,23.50
2018-12-02T15:20:55.050Z,21.33
2018-12-02T15:23:23.282Z,21.93
2018-12-02T15:25:51.518Z,21.97
2018-12-02T15:28:19.753Z,21.30
2018-12-02T15:30:48.035Z,21.97
2018-12-02T15:33:16.274Z,22.13
2018-12-02T15:35:44.530Z,20.93
2018-12-02T15:38:12.777Z,21.57
2018-12-02T15:40:41.071Z,22.10
2018-12-02T15:43:09.311Z,20.90
2018-12-02T15:45:37.555Z,20.87
2018-12-02T15:48:05.938Z,18.60
2018-12-02T15:50:34.191Z,19.90
2018-12-02T15:53:02.427Z,20.20
2018-12-02T15:55:31.950Z,20.60
2018-12-02T15:58:01.633Z,20.63
2018-12-02T16:00:32.078Z,19.90
2018-12-02T16:03:00.321Z,20.07
2018-12-02T16:05:28.573Z,21.73
2018-12-02T16:07:56.810Z,23.80
2018-12-02T16:10:25.050Z,20.23
2018-12-02T16:12:53.738Z,20.83
2018-12-02T16:15:23.355Z,22.10
2018-12-02T16:17:51.895Z,20.13
2018-12-02T16:20:22.673Z,20.63
2018-12-02T16:22:50.935Z,19.73
2018-12-02T16:25:19.170Z,21.47
2018-12-02T16:27:47.422Z,22.07
2018-12-02T16:30:19.669Z,21.23
2018-12-02T16:32:50.244Z,20.67
2018-12-02T16:35:18.658Z,21.03
2018-12-02T16:37:48.102Z,19.13
2018-12-02T16:40:18.526Z,19.43
2018-12-02T16:42:46.770Z,20.23
2018-12-02T16:45:16.190Z,19.87
2018-12-02T16:47:45.487Z,19.40
2018-12-02T16:50:18.270Z,21.20
2018-12-02T16:52:46.516Z,20.70
2018-12-02T16:55:17.987Z,20.03
2018-12-02T16:57:52.131Z,18.90
2018-12-02T17:00:24.419Z,19.53
2018-12-02T17:02:52.669Z,20.20
2018-12-02T17:05:20.904Z,20.53
2018-12-02T17:07:49.145Z,19.70
2018-12-02T17:10:17.370Z,19.73
2018-12-02T17:12:45.619Z,20.60
2018-12-02T17:15:14.557Z,22.13
2018-12-02T17:17:42.926Z,21.47
2018-12-02T17:20:12.748Z,21.73
2018-12-02T17:22:41.075Z,21.57
2018-12-02T17:25:10.748Z,23.53
2018-12-02T17:27:39.075Z,22.20
2018-12-02T17:30:16.423Z,21.53
2018-12-02T17:32:44.707Z,22.23
2018-12-02T17:35:12.966Z,20.93
2018-12-02T17:37:41.218Z,19.53
2018-12-02T17:40:15.459Z,23.40
2018-12-02T17:42:43.687Z,22.70
2018-12-02T17:45:11.958Z,21.83
2018-12-02T17:47:40.195Z,19.37
2018-12-02T17:50:11.454Z,23.10
2018-12-02T17:52:39.761Z,19.50
2018-12-02T17:55:08.274Z,21.17
2018-12-02T17:57:36.503Z,21.17
2018-12-02T18:00:09.990Z,21.93
2018-12-02T18:02:38.220Z,20.77
2018-12-02T18:05:10.512Z,21.63
2018-12-02T18:07:38.761Z,21.60
2018-12-02T18:10:09.931Z,22.60
2018-12-02T18:12:38.503Z,22.70
2018-12-02T18:15:09.961Z,22.33
2018-12-02T18:17:38.222Z,21.37
2018-12-02T18:20:08.565Z,23.33
2018-12-02T18:22:36.802Z,20.77
2018-12-02T18:25:07.267Z,22.23
2018-12-02T18:27:35.498Z,21.77
2018-12-02T18:30:04.857Z,22.47
2018-12-02T18:32:33.106Z,22.97
2018-12-02T18:35:01.342Z,23.07
2018-12-02T18:37:29.581Z,22.60
2018-12-02T18:39:57.825Z,23.67
2018-12-02T18:42:26.107Z,23.97
2018-12-02T18:44:54.352Z,23.13
2018-12-02T18:47:22.578Z,23.97
2018-12-02T18:49:50.824Z,24.77
2018-12-02T18:52:19.070Z,23.47
2018-12-02T18:54:47.314Z,23.87
2018-12-02T18:57:15.542Z,24.27
2018-12-02T18:59:43.791Z,23.07
2018-12-02T19:02:12.015Z,23.77
2018-12-02T19:04:40.272Z,24.00
2018-12-02T19:07:08.524Z,23.43
2018-12-02T19:09:36.778Z,27.60
2018-12-02T19:12:05.215Z,24.67
2018-12-02T19:14:33.508Z,22.67
2018-12-02T19:17:01.722Z,23.77
2018-12-02T19:19:29.960Z,22.33
2018-12-02T19:21:58.215Z,25.17
2018-12-02T19:24:26.438Z,25.20
2018-12-02T19:26:54.694Z,21.87
2018-12-02T19:29:22.926Z,21.03
2018-12-02T19:31:51.191Z,19.03
2018-12-02T19:34:19.412Z,18.93
2018-12-02T19:36:51.471Z,20.23
2018-12-02T19:39:19.706Z,20.13
2018-12-02T19:41:47.966Z,20.90
2018-12-02T19:44:16.202Z,19.83
2018-12-02T19:46:44.448Z,19.80
2018-12-02T19:49:12.693Z,19.37
2018-12-02T19:51:40.930Z,19.47
2018-12-02T19:54:09.185Z,19.63
2018-12-02T19:56:37.431Z,18.00
2018-12-02T19:59:05.678Z,18.23
2018-12-02T20:01:33.920Z,18.03
2018-12-02T20:04:02.149Z,18.43
2018-12-02T20:06:30.398Z,17.97
2018-12-02T20:08:58.626Z,18.20
2018-12-02T20:11:26.887Z,19.47
2018-12-02T20:13:55.142Z,17.67
2018-12-02T20:16:23.410Z,18.30
2018-12-02T20:18:51.670Z,17.20
2018-12-02T20:21:21.478Z,16.63
2018-12-02T20:23:55.239Z,16.97
2018-12-02T20:26:23.510Z,16.60
2018-12-02T20:28:54.782Z,18.07
2018-12-02T20:31:25.130Z,17.40
2018-12-02T20:36:27.025Z,18.83
2018-12-02T20:38:55.470Z,19.43
2018-12-02T20:41:23.737Z,18.13
2018-12-02T20:43:52.018Z,18.97
2018-12-02T20:46:20.245Z,18.63
2018-12-02T20:48:48.523Z,19.10
2018-12-02T20:51:16.774Z,19.93
2018-12-02T20:53:45.026Z,18.20
2018-12-02T20:56:13.258Z,19.77
2018-12-02T20:58:41.506Z,18.73
2018-12-02T21:01:09.735Z,20.47
2018-12-02T21:03:40.306Z,20.20
2018-12-02T21:06:12.347Z,21.07
2018-12-02T21:08:40.590Z,20.40
2018-12-02T21:11:08.826Z,22.10
2018-12-02T21:13:37.078Z,20.40
2018-12-02T21:16:06.068Z,20.80
2018-12-02T21:18:34.322Z,21.40
2018-12-02T21:21:02.542Z,21.23
2018-12-02T21:23:30.794Z,22.80
